Time;durP1;ratioP1;P1;durP2;ratioP2;P2;SDS_P1;SDS_P2;PMS_P1;PMS_P2;Temp;Humidity;BMP_temperature;BMP_pressure;BME280_temperature;BME280_humidity;BME280_pressure;Samples;Min_cycle;Max_cycle;Signal;HPM_P1;HPM_P2
2022/12/27 05:03:56;;;;;;;1999.90;999.90;;;3.30;99.90;;;;;;6379837;22;20033;-75
2022/12/27 05:06:21;;;;;;;1999.90;999.90;;;3.20;99.90;;;;;;6379651;22;20490;-75
2022/12/27 05:14:15;;;;;;;1999.90;999.90;;;3.10;99.90;;;;;;6381107;22;20007;-76
2022/12/27 05:16:42;;;;;;;1999.90;999.90;;;2.90;99.90;;;;;;6379746;22;20082;-76
2022/12/27 05:19:11;;;;;;;1999.90;999.90;;;2.80;99.90;;;;;;6380850;22;20002;-76
2022/12/27 05:21:38;;;;;;;1999.90;999.90;;;2.80;99.90;;;;;;6351953;22;20014;-76
2022/12/27 05:26:48;;;;;;;1999.90;999.90;;;2.60;99.90;;;;;;6380422;22;20034;-77
2022/12/27 05:29:14;;;;;;;1999.90;999.90;;;2.60;99.90;;;;;;6380477;22;20430;-76
2022/12/27 05:31:39;;;;;;;1999.90;999.90;;;2.80;99.90;;;;;;6352106;22;20006;-76
2022/12/27 05:34:05;;;;;;;1999.90;999.90;;;2.70;99.90;;;;;;6380083;22;20003;-77
2022/12/27 05:36:31;;;;;;;1999.90;999.90;;;2.60;99.90;;;;;;6380337;22;20056;-77
2022/12/27 05:38:58;;;;;;;1999.90;999.90;;;2.80;99.90;;;;;;6380443;22;20491;-76
2022/12/27 05:41:24;;;;;;;1999.90;999.90;;;2.40;99.90;;;;;;6352013;22;20014;-76
2022/12/27 05:43:50;;;;;;;1999.90;999.90;;;2.20;99.90;;;;;;6351827;22;20477;-76
2022/12/27 05:46:19;;;;;;;1999.90;999.90;;;2.10;99.90;;;;;;6380406;22;20034;-76
2022/12/27 05:48:45;;;;;;;1999.90;999.90;;;1.90;99.90;;;;;;6351855;22;20450;-76
2022/12/27 05:51:16;;;;;;;1999.90;999.90;;;1.80;99.90;;;;;;6380854;22;20544;-76
2022/12/27 05:53:43;;;;;;;1999.90;999.90;;;1.70;99.90;;;;;;6379619;22;20002;-76
2022/12/27 05:56:13;;;;;;;1999.90;999.90;;;1.70;99.90;;;;;;6351283;22;20055;-77
2022/12/27 05:58:38;;;;;;;1999.90;999.90;;;1.70;99.90;;;;;;6351534;22;20003;-76
2022/12/27 06:01:08;;;;;;;1999.90;999.90;;;1.70;99.90;;;;;;6379653;22;20518;-76
2022/12/27 06:03:35;;;;;;;1999.90;999.90;;;1.70;99.90;;;;;;6379829;22;20003;-76
2022/12/27 06:06:01;;;;;;;1999.90;999.90;;;1.70;99.90;;;;;;6351593;22;20011;-76
2022/12/27 06:08:28;;;;;;;1999.90;999.90;;;1.70;99.90;;;;;;6352271;22;20501;-77
2022/12/27 06:11:04;;;;;;;1999.90;999.90;;;1.60;99.90;;;;;;6379769;22;20442;-77
2022/12/27 06:13:30;;;;;;;1999.90;999.90;;;1.70;99.90;;;;;;6378564;22;20007;-76
2022/12/27 06:15:58;;;;;;;1999.90;999.90;;;1.60;99.90;;;;;;6350155;22;20015;-76
2022/12/27 06:18:24;;;;;;;1999.90;999.90;;;1.60;99.90;;;;;;6351197;22;20057;-76
2022/12/27 06:20:49;;;;;;;1999.90;999.90;;;1.70;99.90;;;;;;6378342;22;20507;-76
2022/12/27 06:23:15;;;;;;;1999.90;999.90;;;1.80;99.90;;;;;;6377892;22;25580;-76
2022/12/27 06:25:40;;;;;;;1999.90;999.90;;;1.90;99.90;;;;;;6378549;22;20011;-76
2022/12/27 06:28:06;;;;;;;1999.90;999.90;;;1.90;99.90;;;;;;6350088;22;20108;-76
2022/12/27 06:30:31;;;;;;;1999.90;999.90;;;1.80;99.90;;;;;;6350067;22;20084;-76
2022/12/27 06:32:57;;;;;;;1999.90;999.90;;;1.80;99.90;;;;;;6349936;22;20007;-76
2022/12/27 06:35:22;;;;;;;1999.90;999.90;;;2.00;99.90;;;;;;6378145;22;20474;-76
2022/12/27 06:37:48;;;;;;;1999.90;999.90;;;2.00;99.90;;;;;;6350391;22;20003;-77
2022/12/27 06:40:13;;;;;;;1999.90;999.90;;;1.90;99.90;;;;;;6378719;22;20007;-76
2022/12/27 06:42:39;;;;;;;1999.90;999.90;;;1.90;99.90;;;;;;6379206;22;20007;-76
2022/12/27 06:45:05;;;;;;;1999.90;999.90;;;1.90;99.90;;;;;;6350360;22;20492;-76
2022/12/27 06:47:31;;;;;;;1999.90;999.90;;;2.00;99.90;;;;;;6378397;22;20077;-76
2022/12/27 06:49:57;;;;;;;1999.90;999.90;;;2.10;99.90;;;;;;6378097;22;20058;-76
2022/12/27 06:52:22;;;;;;;1999.90;999.90;;;2.00;99.90;;;;;;6349124;22;22833;-76
2022/12/27 06:54:48;;;;;;;1999.90;999.90;;;1.90;99.90;;;;;;6378546;22;20013;-76
2022/12/27 06:57:13;;;;;;;1999.90;999.90;;;1.80;99.90;;;;;;6378587;22;20002;-77
2022/12/27 06:59:39;;;;;;;1999.90;999.90;;;1.70;99.90;;;;;;6378280;22;20044;-76
2022/12/27 07:02:04;;;;;;;1999.90;999.90;;;1.70;99.90;;;;;;6349251;22;21602;-76
2022/12/27 07:04:30;;;;;;;1999.90;999.90;;;1.60;99.90;;;;;;6350539;22;20014;-75
2022/12/27 07:06:55;;;;;;;1999.90;999.90;;;1.60;99.90;;;;;;6377654;22;20038;-76
2022/12/27 07:09:21;;;;;;;1999.90;999.90;;;1.60;99.90;;;;;;6378462;22;20460;-76
2022/12/27 07:11:46;;;;;;;1999.90;999.90;;;1.60;99.90;;;;;;6349602;22;20007;-75
2022/12/27 07:14:12;;;;;;;1999.90;999.90;;;1.70;99.90;;;;;;6378074;22;20007;-77
2022/12/27 07:16:38;;;;;;;1999.90;999.90;;;1.80;99.90;;;;;;6377730;22;20060;-76
2022/12/27 07:19:03;;;;;;;1999.90;999.90;;;1.90;99.90;;;;;;6378133;22;20064;-76
2022/12/27 07:21:29;;;;;;;1999.90;999.90;;;1.90;99.90;;;;;;6349935;22;20003;-75
2022/12/27 07:23:55;;;;;;;1999.90;999.90;;;1.80;99.90;;;;;;6378257;22;20738;-76
2022/12/27 07:26:26;;;;;;;1999.90;999.90;;;1.90;99.90;;;;;;6377374;22;20038;-76
2022/12/27 07:28:53;;;;;;;1999.90;999.90;;;2.30;99.90;;;;;;6349501;22;20054;-76
2022/12/27 07:31:22;;;;;;;1999.90;999.90;;;2.40;99.90;;;;;;6387415;22;20011;-76
2022/12/27 07:33:48;;;;;;;1999.90;999.90;;;2.50;99.90;;;;;;6352339;22;20003;-75
2022/12/27 07:36:20;;;;;;;1999.90;999.90;;;2.50;99.90;;;;;;6349468;22;20009;-76
2022/12/27 07:38:46;;;;;;;1999.90;999.90;;;2.60;99.90;;;;;;6349401;22;20018;-76
2022/12/27 07:41:12;;;;;;;1999.90;999.90;;;2.50;99.90;;;;;;6377352;22;20007;-76
2022/12/27 07:43:38;;;;;;;1999.90;999.90;;;2.50;99.90;;;;;;6349300;22;20011;-76
2022/12/27 07:46:14;;;;;;;1999.90;999.90;;;2.40;99.90;;;;;;6349305;22;20015;-76
2022/12/27 07:48:40;;;;;;;1999.90;999.90;;;2.40;99.90;;;;;;6377517;22;20033;-76
2022/12/27 07:51:05;;;;;;;1999.90;999.90;;;2.50;99.90;;;;;;6377510;22;20007;-76
2022/12/27 07:53:32;;;;;;;1999.90;999.90;;;2.60;99.90;;;;;;6350011;22;20007;-77
2022/12/27 07:55:58;;;;;;;1999.90;999.90;;;2.60;99.90;;;;;;6349897;22;20056;-76
2022/12/27 07:58:24;;;;;;;1999.90;999.90;;;2.60;99.90;;;;;;6350341;22;20070;-76
2022/12/27 08:00:51;;;;;;;1999.90;999.90;;;2.60;99.90;;;;;;6378627;22;20015;-77
2022/12/27 08:03:17;;;;;;;1999.90;999.90;;;2.50;99.90;;;;;;6350770;22;20007;-76
2022/12/27 08:05:51;;;;;;;1999.90;999.90;;;2.50;99.90;;;;;;6379942;22;20007;-76
2022/12/27 08:08:20;;;;;;;1999.90;999.90;;;2.50;99.90;;;;;;6380865;22;20009;-76
2022/12/27 08:10:45;;;;;;;1999.90;999.90;;;2.60;99.90;;;;;;6379012;22;20421;-76
2022/12/27 08:13:11;;;;;;;1999.90;999.90;;;2.80;99.90;;;;;;6378328;22;19999;-76
2022/12/27 08:15:40;;;;;;;1999.90;999.90;;;2.80;99.90;;;;;;6351665;22;20011;-76
2022/12/27 08:18:05;;;;;;;1999.90;999.90;;;2.90;99.90;;;;;;6350265;22;20388;-76
2022/12/27 08:20:31;;;;;;;1999.90;999.90;;;2.90;99.90;;;;;;6350861;22;20090;-78
2022/12/27 08:22:56;;;;;;;1999.90;999.90;;;2.90;99.90;;;;;;6350256;22;20768;-76
2022/12/27 08:25:22;;;;;;;1999.90;999.90;;;2.90;99.90;;;;;;6378994;22;20007;-78
2022/12/27 08:27:48;;;;;;;1999.90;999.90;;;2.90;99.90;;;;;;6377738;22;20052;-77
2022/12/27 08:30:13;;;;;;;1999.90;999.90;;;2.90;99.90;;;;;;6377847;22;20002;-79
2022/12/27 08:32:39;;;;;;;1999.90;999.90;;;3.00;99.90;;;;;;6378758;22;20043;-77
2022/12/27 08:35:04;;;;;;;1999.90;999.90;;;2.90;99.90;;;;;;6349977;22;20007;-76
2022/12/27 08:37:30;;;;;;;1999.90;999.90;;;2.90;99.90;;;;;;6377816;22;20018;-77
2022/12/27 08:39:55;;;;;;;1999.90;999.90;;;3.00;99.90;;;;;;6377793;22;20010;-76
2022/12/27 08:42:21;;;;;;;1999.90;999.90;;;3.00;99.90;;;;;;6377745;22;20418;-77
2022/12/27 08:44:46;;;;;;;1999.90;999.90;;;3.10;99.90;;;;;;6349561;22;20702;-76
2022/12/27 08:47:12;;;;;;;1999.90;999.90;;;3.20;99.90;;;;;;6375805;22;20017;-76
2022/12/27 08:49:37;;;;;;;1999.90;999.90;;;3.20;99.90;;;;;;6377618;22;20029;-76
2022/12/27 08:52:03;;;;;;;1999.90;999.90;;;3.20;99.90;;;;;;6349694;22;20014;-76
2022/12/27 08:54:29;;;;;;;1999.90;999.90;;;3.30;99.90;;;;;;6378261;22;20003;-76
2022/12/27 08:56:54;;;;;;;1999.90;999.90;;;3.40;99.90;;;;;;6349639;22;20007;-76
2022/12/27 08:59:20;;;;;;;1999.90;999.90;;;3.40;99.90;;;;;;6349129;22;23538;-77
2022/12/27 09:01:45;;;;;;;1999.90;999.90;;;3.40;99.90;;;;;;6376085;22;20017;-77
2022/12/27 09:04:11;;;;;;;1999.90;999.90;;;3.40;99.90;;;;;;6378271;22;20372;-78
2022/12/27 09:06:38;;;;;;;1999.90;999.90;;;3.40;99.90;;;;;;6353532;22;20387;-78
2022/12/27 09:09:04;;;;;;;1999.90;999.90;;;3.50;99.90;;;;;;6349322;22;20090;-78
2022/12/27 09:11:32;;;;;;;1999.90;999.90;;;3.40;99.90;;;;;;6349546;22;20091;-79
2022/12/27 09:13:59;;;;;;;1999.90;999.90;;;3.50;99.90;;;;;;6378688;22;20120;-78
2022/12/27 09:16:26;;;;;;;1999.90;999.90;;;3.60;99.90;;;;;;6349964;22;20402;-78
2022/12/27 09:18:54;;;;;;;1999.90;999.90;;;3.70;99.90;;;;;;6350173;22;20002;-78
2022/12/27 09:21:21;;;;;;;1999.90;999.90;;;3.80;99.90;;;;;;6379899;22;20045;-78
2022/12/27 09:23:48;;;;;;;1999.90;999.90;;;3.90;99.90;;;;;;6352817;22;20079;-78
2022/12/27 09:26:17;;;;;;;1999.90;999.90;;;4.10;99.90;;;;;;6349662;22;20446;-78
2022/12/27 09:28:43;;;;;;;1999.90;999.90;;;4.30;99.90;;;;;;6352599;22;20014;-78
2022/12/27 09:31:10;;;;;;;1999.90;999.90;;;4.30;99.90;;;;;;6381649;22;20476;-77
2022/12/27 09:33:36;;;;;;;1999.90;999.90;;;4.40;99.90;;;;;;6382633;22;20053;-80
2022/12/27 09:36:10;;;;;;;1999.90;999.90;;;4.40;99.90;;;;;;6383291;22;20015;-80
2022/12/27 09:38:36;;;;;;;1999.90;999.90;;;4.50;99.90;;;;;;6356124;22;20007;-79
2022/12/27 09:41:20;;;;;;;1999.90;999.90;;;4.60;99.90;;;;;;6355396;22;20003;-79
2022/12/27 09:43:58;;;;;;;1999.90;999.90;;;4.60;99.90;;;;;;6387187;22;20865;-79
2022/12/27 09:46:52;;;;;;;1999.90;999.90;;;4.60;99.90;;;;;;6378636;22;20022;-77
2022/12/27 09:49:29;;;;;;;1999.90;999.90;;;4.70;99.90;;;;;;6297032;22;20013;-78
2022/12/27 09:52:03;;;;;;;1999.90;999.90;;;4.70;99.90;;;;;;6377444;22;20531;-80
2022/12/27 09:54:45;;;;;;;1999.90;999.90;;;4.80;99.90;;;;;;6350737;22;20393;-77
2022/12/27 09:57:18;;;;;;;1999.90;999.90;;;4.80;99.90;;;;;;6349116;22;20073;-79
2022/12/27 09:59:48;;;;;;;1999.90;999.90;;;4.90;99.90;;;;;;6350620;22;20010;-79
2022/12/27 10:02:25;;;;;;;1999.90;999.90;;;5.00;99.90;;;;;;6378214;22;20042;-79
2022/12/27 10:04:53;;;;;;;1999.90;999.90;;;5.00;99.90;;;;;;6350076;22;19999;-78
2022/12/27 10:07:40;;;;;;;1999.90;999.90;;;5.00;99.90;;;;;;6376667;22;20014;-78
2022/12/27 10:10:44;;;;;;;1999.90;999.90;;;5.00;99.90;;;;;;6351997;22;20011;-80
2022/12/27 10:13:33;;;;;;;1999.90;999.90;;;5.10;99.90;;;;;;6379956;22;19999;-79
2022/12/27 10:16:31;;;;;;;1999.90;999.90;;;5.10;99.90;;;;;;6378348;22;20003;-78
2022/12/27 10:19:33;;;;;;;1999.90;999.90;;;5.10;99.90;;;;;;6349845;22;20068;-77
2022/12/27 10:22:27;;;;;;;1999.90;999.90;;;5.20;99.90;;;;;;6377996;22;20010;-78
2022/12/27 10:24:57;;;;;;;1999.90;999.90;;;5.20;99.90;;;;;;6378063;22;20011;-77
2022/12/27 10:27:26;;;;;;;1999.90;999.90;;;5.20;99.90;;;;;;6376560;22;20083;-78
2022/12/27 10:29:54;;;;;;;1999.90;999.90;;;5.30;99.90;;;;;;6377810;22;20011;-77
2022/12/27 10:32:19;;;;;;;1999.90;999.90;;;5.30;99.90;;;;;;6348795;22;20018;-76
2022/12/27 10:34:49;;;;;;;1999.90;999.90;;;5.40;99.90;;;;;;6350412;22;20457;-77
2022/12/27 10:37:15;;;;;;;1999.90;999.90;;;5.40;99.90;;;;;;6377986;22;20094;-77
2022/12/27 10:39:41;;;;;;;1999.90;999.90;;;5.50;99.90;;;;;;6377526;22;20455;-79
2022/12/27 10:42:40;;;;;;;1999.90;999.90;;;5.50;99.90;;;;;;6377058;22;20880;-78
2022/12/27 10:45:37;;;;;;;1999.90;999.90;;;5.60;99.90;;;;;;6382465;22;20351;-78
2022/12/27 10:48:33;;;;;;;1999.90;999.90;;;5.70;99.90;;;;;;6349943;22;20003;-78
2022/12/27 10:51:04;;;;;;;1999.90;999.90;;;5.80;99.90;;;;;;6344303;22;20111;-78
2022/12/27 10:53:44;;;;;;;1999.90;999.90;;;5.80;99.90;;;;;;6350195;22;20033;-78
2022/12/27 10:56:15;;;;;;;1999.90;999.90;;;5.80;99.90;;;;;;6378231;22;20036;-78
2022/12/27 10:58:46;;;;;;;1999.90;999.90;;;5.90;99.90;;;;;;6378093;22;20019;-78
2022/12/27 11:01:28;;;;;;;1999.90;999.90;;;6.00;99.90;;;;;;6377556;22;20466;-78
2022/12/27 11:04:15;;;;;;;1999.90;999.90;;;6.10;99.90;;;;;;6378241;22;19998;-78
2022/12/27 11:06:43;;;;;;;1999.90;999.90;;;6.20;99.90;;;;;;6378275;22;20098;-78
2022/12/27 11:09:26;;;;;;;1999.90;999.90;;;6.20;99.90;;;;;;6378588;22;19999;-78
2022/12/27 11:12:10;;;;;;;1999.90;999.90;;;6.40;99.90;;;;;;6377906;22;20041;-78
2022/12/27 11:14:36;;;;;;;1999.90;999.90;;;6.30;99.90;;;;;;6350242;22;20003;-78
2022/12/27 11:17:07;;;;;;;1999.90;999.90;;;6.50;99.90;;;;;;6377549;22;20080;-78
2022/12/27 11:19:33;;;;;;;1999.90;999.90;;;6.60;99.90;;;;;;6377868;22;20014;-78
2022/12/27 11:22:04;;;;;;;1999.90;999.90;;;6.60;99.90;;;;;;6377345;22;20442;-79
2022/12/27 11:24:30;;;;;;;1999.90;999.90;;;6.70;99.90;;;;;;6377611;22;20386;-79
2022/12/27 11:26:58;;;;;;;1999.90;999.90;;;6.70;99.90;;;;;;6349364;22;20038;-78
2022/12/27 11:29:26;;;;;;;1999.90;999.90;;;6.80;99.90;;;;;;6349313;22;20003;-79
2022/12/27 11:31:53;;;;;;;1999.90;999.90;;;6.80;99.90;;;;;;6378603;22;20011;-79
2022/12/27 11:34:28;;;;;;;1999.90;999.90;;;6.90;99.90;;;;;;6380527;22;20002;-81
2022/12/27 11:37:01;;;;;;;1999.90;999.90;;;6.90;99.90;;;;;;6380605;22;20059;-80
2022/12/27 11:39:46;;;;;;;1999.90;999.90;;;6.90;99.90;;;;;;6382399;22;20010;-80
2022/12/27 11:42:37;;;;;;;1999.90;999.90;;;6.90;99.90;;;;;;6355487;22;20021;-79
2022/12/27 11:45:17;;;;;;;1999.90;999.90;;;6.90;99.90;;;;;;6354145;22;20010;-80
2022/12/27 11:48:12;;;;;;;1999.90;999.90;;;7.00;99.90;;;;;;6352536;22;20072;-80
2022/12/27 11:51:09;;;;;;;1999.90;999.90;;;7.00;99.90;;;;;;6307852;22;20489;-80
2022/12/27 11:54:06;;;;;;;1999.90;999.90;;;7.10;99.90;;;;;;6362309;22;20049;-80
2022/12/27 11:56:42;;;;;;;1999.90;999.90;;;7.10;99.90;;;;;;6382878;22;20451;-81
2022/12/27 11:59:27;;;;;;;1999.90;999.90;;;7.20;99.90;;;;;;6389071;22;20003;-80
2022/12/27 12:02:18;;;;;;;1999.90;999.90;;;7.20;99.90;;;;;;6354576;22;20772;-79
2022/12/27 12:05:13;;;;;;;1999.90;999.90;;;7.30;99.90;;;;;;6383394;22;19991;-80
2022/12/27 12:08:13;;;;;;;1999.90;999.90;;;7.40;99.90;;;;;;6382065;22;20378;-80
2022/12/27 12:11:14;;;;;;;1999.90;999.90;;;7.60;99.90;;;;;;6354983;22;20389;-79
2022/12/27 12:14:04;;;;;;;1999.90;999.90;;;7.70;99.90;;;;;;6353629;22;20086;-79
2022/12/27 12:17:02;;;;;;;1999.90;999.90;;;7.80;99.90;;;;;;6352445;22;20003;-80
2022/12/27 12:20:10;;;;;;;1999.90;999.90;;;7.80;99.90;;;;;;6353671;22;20080;-80
2022/12/27 12:22:45;;;;;;;1999.90;999.90;;;7.70;99.90;;;;;;6352479;22;20014;-79
2022/12/27 12:25:42;;;;;;;1999.90;999.90;;;7.60;99.90;;;;;;6352602;22;20021;-79
2022/12/27 12:28:47;;;;;;;1999.90;999.90;;;7.40;99.90;;;;;;6381757;22;20042;-80
2022/12/27 12:31:24;;;;;;;1999.90;999.90;;;7.30;99.90;;;;;;6351241;22;20039;-80
2022/12/27 12:34:07;;;;;;;1999.90;999.90;;;7.30;99.90;;;;;;6378639;22;20081;-81
2022/12/27 12:36:43;;;;;;;1999.90;999.90;;;7.20;99.90;;;;;;6351049;22;20756;-79
2022/12/27 12:39:40;;;;;;;1999.90;999.90;;;7.10;99.90;;;;;;6351437;22;20454;-81
2022/12/27 12:42:18;;;;;;;1999.90;999.90;;;7.00;99.90;;;;;;6351106;22;20009;-81
2022/12/27 12:45:00;;;;;;;1999.90;999.90;;;7.00;99.90;;;;;;6353124;22;20010;-81
2022/12/27 12:47:38;;;;;;;1999.90;999.90;;;7.00;99.90;;;;;;6382266;22;20015;-81
2022/12/27 12:50:23;;;;;;;1999.90;999.90;;;7.00;99.90;;;;;;6352277;22;20486;-79
2022/12/27 12:53:04;;;;;;;1999.90;999.90;;;6.90;99.90;;;;;;6352088;22;20018;-81
2022/12/27 12:55:46;;;;;;;1999.90;999.90;;;7.00;99.90;;;;;;6351964;22;20003;-79
2022/12/27 12:58:52;;;;;;;1999.90;999.90;;;7.00;99.90;;;;;;6351974;22;20436;-79
2022/12/27 13:01:40;;;;;;;1999.90;999.90;;;7.00;99.90;;;;;;6348165;22;20011;-78
2022/12/27 13:04:18;;;;;;;1999.90;999.90;;;7.10;99.90;;;;;;6354258;22;20007;-81
2022/12/27 13:07:14;;;;;;;1999.90;999.90;;;7.20;99.90;;;;;;6380317;22;20006;-83
2022/12/27 13:10:14;;;;;;;1999.90;999.90;;;7.30;99.90;;;;;;6353256;22;20003;-80
2022/12/27 13:13:08;;;;;;;1999.90;999.90;;;7.40;99.90;;;;;;6352267;22;20339;-79
2022/12/27 13:16:02;;;;;;;1999.90;999.90;;;7.50;99.90;;;;;;6351856;22;20003;-82
2022/12/27 13:18:53;;;;;;;1999.90;999.90;;;7.50;99.90;;;;;;6365569;22;20055;-80
2022/12/27 13:21:44;;;;;;;1999.90;999.90;;;7.60;99.90;;;;;;6353461;22;20025;-81
2022/12/27 13:24:44;;;;;;;1999.90;999.90;;;7.70;99.90;;;;;;6381282;22;20425;-81
2022/12/27 13:27:40;;;;;;;1999.90;999.90;;;7.80;99.90;;;;;;6381164;22;20018;-81
2022/12/27 13:30:34;;;;;;;1999.90;999.90;;;7.80;99.90;;;;;;6346198;22;20823;-82
2022/12/27 13:33:20;;;;;;;1999.90;999.90;;;7.80;99.90;;;;;;6286604;22;20003;-81
2022/12/27 13:36:14;;;;;;;1999.90;999.90;;;7.90;99.90;;;;;;6385897;22;20053;-80
2022/12/27 13:38:52;;;;;;;1999.90;999.90;;;7.90;99.90;;;;;;6367068;22;20022;-81
2022/12/27 13:41:34;;;;;;;1999.90;999.90;;;7.90;99.90;;;;;;6357808;22;20050;-81
2022/12/27 13:44:33;;;;;;;1999.90;999.90;;;8.00;99.90;;;;;;6356010;22;20007;-80
2022/12/27 13:47:33;;;;;;;1999.90;999.90;;;8.10;99.90;;;;;;6355294;22;20007;-81
2022/12/27 13:50:39;;;;;;;1999.90;999.90;;;8.20;99.90;;;;;;6355542;22;20006;-78
2022/12/27 13:53:33;;;;;;;1999.90;999.90;;;8.20;99.90;;;;;;6351372;22;20003;-80
2022/12/27 13:56:18;;;;;;;1999.90;999.90;;;8.20;99.90;;;;;;6380952;22;20010;-79
2022/12/27 13:59:25;;;;;;;1999.90;999.90;;;8.00;99.90;;;;;;6351766;22;20038;-79
2022/12/27 14:02:29;;;;;;;1999.90;999.90;;;8.00;99.90;;;;;;6325858;22;20442;-79
2022/12/27 14:05:00;;;;;;;1999.90;999.90;;;7.80;99.90;;;;;;6320078;22;20421;-78
2022/12/27 14:07:51;;;;;;;1999.90;999.90;;;7.80;99.90;;;;;;6378959;22;20003;-78
2022/12/27 14:10:25;;;;;;;1999.90;999.90;;;7.70;99.90;;;;;;6378561;22;20010;-79
2022/12/27 14:12:59;;;;;;;1999.90;999.90;;;7.70;99.90;;;;;;6380096;22;20009;-78
2022/12/27 14:15:45;;;;;;;1999.90;999.90;;;7.60;99.90;;;;;;6350731;22;20010;-79
2022/12/27 14:18:57;;;;;;;1999.90;999.90;;;7.50;99.90;;;;;;6350709;22;20427;-79
2022/12/27 14:21:34;;;;;;;1999.90;999.90;;;7.50;99.90;;;;;;6351078;22;20011;-79
2022/12/27 14:24:20;;;;;;;1999.90;999.90;;;7.50;99.90;;;;;;6379194;22;20009;-79
2022/12/27 14:27:07;;;;;;;1999.90;999.90;;;7.40;99.90;;;;;;6351664;22;20017;-79
2022/12/27 14:29:44;;;;;;;1999.90;999.90;;;7.40;99.90;;;;;;6352209;22;19998;-79
2022/12/27 14:32:40;;;;;;;1999.90;999.90;;;7.30;99.90;;;;;;6377971;22;20017;-79
2022/12/27 14:35:28;;;;;;;1999.90;999.90;;;7.20;99.90;;;;;;6379270;22;20468;-79
2022/12/27 14:38:27;;;;;;;1999.90;999.90;;;7.10;99.90;;;;;;6350226;22;20077;-79
2022/12/27 14:41:11;;;;;;;1999.90;999.90;;;7.00;99.90;;;;;;6353911;22;20013;-79
2022/12/27 14:44:14;;;;;;;1999.90;999.90;;;6.90;99.90;;;;;;6355486;22;20006;-80
2022/12/27 14:47:11;;;;;;;1999.90;999.90;;;6.70;99.90;;;;;;6381199;22;20007;-79
2022/12/27 14:50:14;;;;;;;1999.90;999.90;;;6.60;99.90;;;;;;6382182;22;20003;-79
2022/12/27 14:53:01;;;;;;;1999.90;999.90;;;6.50;99.90;;;;;;6352500;22;20438;-79
2022/12/27 14:55:49;;;;;;;1999.90;999.90;;;6.30;99.90;;;;;;6381723;22;20003;-79
2022/12/27 14:58:33;;;;;;;1999.90;999.90;;;6.30;99.90;;;;;;6378352;22;20011;-79
2022/12/27 15:01:29;;;;;;;1999.90;999.90;;;6.30;99.90;;;;;;6353068;22;20029;-79
2022/12/27 15:04:31;;;;;;;1999.90;999.90;;;6.30;99.90;;;;;;6358266;22;20030;-79
2022/12/27 15:07:17;;;;;;;1999.90;999.90;;;6.40;99.90;;;;;;6315888;22;20021;-78
2022/12/27 15:10:01;;;;;;;1999.90;999.90;;;6.40;99.90;;;;;;6380783;22;20480;-80
2022/12/27 15:13:02;;;;;;;1999.90;999.90;;;6.30;99.90;;;;;;6380539;22;20003;-79
2022/12/27 15:15:55;;;;;;;1999.90;999.90;;;6.20;99.90;;;;;;6380808;22;20003;-78
2022/12/27 15:18:54;;;;;;;1999.90;999.90;;;6.00;99.90;;;;;;6376569;22;20011;-78
2022/12/27 15:21:33;;;;;;;1999.90;999.90;;;5.80;99.90;;;;;;6351873;22;20038;-78
2022/12/27 15:24:20;;;;;;;1999.90;999.90;;;5.70;99.90;;;;;;6352033;22;20003;-78
2022/12/27 15:26:55;;;;;;;1999.90;999.90;;;5.50;99.90;;;;;;6378789;22;20003;-77
2022/12/27 15:29:35;;;;;;;1999.90;999.90;;;5.30;99.90;;;;;;6350236;22;20443;-78
2022/12/27 15:32:24;;;;;;;1999.90;999.90;;;5.20;99.90;;;;;;6377702;22;20007;-78
2022/12/27 15:35:19;;;;;;;1999.90;999.90;;;5.10;99.90;;;;;;6349894;22;20007;-78
2022/12/27 15:38:00;;;;;;;1999.90;999.90;;;5.00;99.90;;;;;;6375587;22;20129;-79
2022/12/27 15:40:31;;;;;;;1999.90;999.90;;;4.80;99.90;;;;;;6376584;22;20011;-78
2022/12/27 15:43:14;;;;;;;1999.90;999.90;;;4.60;99.90;;;;;;6348809;22;20003;-79
2022/12/27 15:46:01;;;;;;;1999.90;999.90;;;4.50;99.90;;;;;;6348263;22;20015;-78
2022/12/27 15:49:03;;;;;;;1999.90;999.90;;;4.40;99.90;;;;;;6376687;22;20034;-77
2022/12/27 15:52:00;;;;;;;1999.90;999.90;;;4.40;99.90;;;;;;6350075;22;20018;-79
2022/12/27 15:54:56;;;;;;;1999.90;999.90;;;4.20;99.90;;;;;;6349345;22;20003;-79
2022/12/27 15:57:25;;;;;;;1999.90;999.90;;;4.00;99.90;;;;;;6346950;22;20054;-79
2022/12/27 16:00:23;;;;;;;1999.90;999.90;;;4.00;99.90;;;;;;6376805;22;20012;-79
2022/12/27 16:02:51;;;;;;;1999.90;999.90;;;3.80;99.90;;;;;;6295768;22;20023;-81
2022/12/27 16:05:22;;;;;;;1999.90;999.90;;;3.80;99.90;;;;;;6354175;22;20450;-82
2022/12/27 16:07:57;;;;;;;1999.90;999.90;;;3.70;99.90;;;;;;6353576;22;20007;-80
2022/12/27 16:10:29;;;;;;;1999.90;999.90;;;3.50;99.90;;;;;;6380019;22;20007;-80
2022/12/27 16:12:59;;;;;;;1999.90;999.90;;;3.50;99.90;;;;;;6381152;22;20009;-79
2022/12/27 16:15:52;;;;;;;1999.90;999.90;;;3.50;99.90;;;;;;6380413;22;20045;-80
2022/12/27 16:18:18;;;;;;;1999.90;999.90;;;3.40;99.90;;;;;;6347998;22;20014;-81
2022/12/27 16:20:54;;;;;;;1999.90;999.90;;;3.30;99.90;;;;;;6384020;22;20007;-81
2022/12/27 16:23:25;;;;;;;1999.90;999.90;;;3.20;99.90;;;;;;6354926;22;20411;-82
2022/12/27 16:26:09;;;;;;;1999.90;999.90;;;3.20;99.90;;;;;;6381630;22;20015;-81
2022/12/27 16:28:36;;;;;;;1999.90;999.90;;;3.10;99.90;;;;;;6357604;22;20034;-82
2022/12/27 16:31:06;;;;;;;1999.90;999.90;;;3.20;99.90;;;;;;6388436;22;19995;-81
2022/12/27 16:33:38;;;;;;;1999.90;999.90;;;3.20;99.90;;;;;;6384473;22;20106;-79
2022/12/27 16:36:28;;;;;;;1999.90;999.90;;;3.10;99.90;;;;;;6368756;22;20014;-81
2022/12/27 16:38:53;;;;;;;1999.90;999.90;;;3.00;99.90;;;;;;6356138;22;20019;-81
2022/12/27 16:41:34;;;;;;;1999.90;999.90;;;2.90;99.90;;;;;;6384455;22;20068;-82
2022/12/27 16:44:00;;;;;;;1999.90;999.90;;;2.80;99.90;;;;;;6382559;22;20033;-78
2022/12/27 16:46:55;;;;;;;1999.90;999.90;;;2.80;99.90;;;;;;6378520;22;20418;-78
2022/12/27 16:49:39;;;;;;;1999.90;999.90;;;2.80;99.90;;;;;;6378947;22;20002;-78
2022/12/27 16:52:26;;;;;;;1999.90;999.90;;;2.80;99.90;;;;;;6353152;22;20006;-80
2022/12/27 16:55:16;;;;;;;1999.90;999.90;;;2.70;99.90;;;;;;6383785;22;20033;-79
2022/12/27 16:57:45;;;;;;;1999.90;999.90;;;2.60;99.90;;;;;;6383657;22;19995;-80
2022/12/27 17:00:10;;;;;;;1999.90;999.90;;;2.50;99.90;;;;;;6355935;22;20053;-82
2022/12/27 17:02:36;;;;;;;1999.90;999.90;;;2.40;99.90;;;;;;6353501;22;20712;-80
2022/12/27 17:05:22;;;;;;;1999.90;999.90;;;2.40;99.90;;;;;;6354366;22;20010;-81
2022/12/27 17:07:51;;;;;;;1999.90;999.90;;;2.30;99.90;;;;;;6354871;22;19999;-82
2022/12/27 17:10:26;;;;;;;1999.90;999.90;;;2.30;99.90;;;;;;6355633;22;20231;-83
2022/12/27 17:13:30;;;;;;;1999.90;999.90;;;2.20;99.90;;;;;;6355799;22;20007;-83
2022/12/27 17:16:14;;;;;;;1999.90;999.90;;;2.10;99.90;;;;;;6355339;22;19991;-83
2022/12/27 17:18:51;;;;;;;1999.90;999.90;;;2.10;99.90;;;;;;6351311;22;20017;-81
2022/12/27 17:21:23;;;;;;;1999.90;999.90;;;2.00;99.90;;;;;;6378827;22;20002;-80
2022/12/27 17:23:51;;;;;;;1999.90;999.90;;;1.90;99.90;;;;;;6352384;22;20014;-80
2022/12/27 17:26:27;;;;;;;1999.90;999.90;;;2.00;99.90;;;;;;6349290;22;20682;-77
2022/12/27 17:29:26;;;;;;;1999.90;999.90;;;2.00;99.90;;;;;;6350140;22;20083;-77
2022/12/27 17:32:02;;;;;;;1999.90;999.90;;;2.00;99.90;;;;;;6350552;22;20010;-81
2022/12/27 17:34:46;;;;;;;1999.90;999.90;;;1.90;99.90;;;;;;6378336;22;20417;-81
2022/12/27 17:37:27;;;;;;;1999.90;999.90;;;1.90;99.90;;;;;;6349443;22;20015;-80
2022/12/27 17:40:05;;;;;;;1999.90;999.90;;;1.80;99.90;;;;;;6378370;22;20028;-79
2022/12/27 17:45:40;;;;;;;1999.90;999.90;;;1.70;99.90;;;;;;6376597;22;20007;-80
2022/12/27 17:48:20;;;;;;;1999.90;999.90;;;1.60;99.90;;;;;;6350212;22;20007;-81
2022/12/27 17:50:46;;;;;;;1999.90;999.90;;;1.60;99.90;;;;;;6349966;22;20018;-78
2022/12/27 17:59:08;;;;;;;1999.90;999.90;;;1.50;99.90;;;;;;6380263;22;20011;-77
2022/12/27 18:01:39;;;;;;;1999.90;999.90;;;1.40;99.90;;;;;;6379725;22;20006;-80
2022/12/27 18:04:05;;;;;;;1999.90;999.90;;;1.50;99.90;;;;;;6350827;22;20932;-78
2022/12/27 18:06:34;;;;;;;1999.90;999.90;;;1.40;99.90;;;;;;6350636;22;20021;-81
2022/12/27 18:09:00;;;;;;;1999.90;999.90;;;1.40;99.90;;;;;;6379383;22;20057;-80
2022/12/27 18:11:30;;;;;;;1999.90;999.90;;;1.40;99.90;;;;;;6378601;22;20705;-80
2022/12/27 18:13:59;;;;;;;1999.90;999.90;;;1.40;99.90;;;;;;6378924;22;20080;-79
2022/12/27 18:16:37;;;;;;;1999.90;999.90;;;1.30;99.90;;;;;;6350404;22;20010;-79